Time;durP1;ratioP1;P1;durP2;ratioP2;P2;SDS_P1;SDS_P2;PMS_P1;PMS_P2;Temp;Humidity;BMP_temperature;BMP_pressure;BME280_temperature;BME280_humidity;BME280_pressure;Samples;Min_cycle;Max_cycle;Signal;HPM_P1;HPM_P2
2021/03/27 00:01:36;;;;;;;60.50;35.03;;;;;;;11.95;52.34;100327.63;5074763;27;97391;-77
2021/03/27 00:04:11;;;;;;;62.17;35.63;;;;;;;11.96;52.11;100322.31;5055682;27;96818;-77
2021/03/27 00:06:40;;;;;;;61.72;33.28;;;;;;;12.04;51.86;100324.63;5040697;27;101439;-77
2021/03/27 00:09:16;;;;;;;53.30;32.17;;;;;;;12.03;51.61;100324.69;5062821;27;97799;-77
2021/03/27 00:11:46;;;;;;;58.22;32.85;;;;;;;11.95;51.83;100317.94;5056602;27;97148;-78
2021/03/27 00:14:16;;;;;;;53.08;32.30;;;;;;;12.02;51.96;100315.09;5038164;27;96853;-77
2021/03/27 00:16:54;;;;;;;55.28;32.50;;;;;;;11.95;51.84;100309.19;5053659;27;102203;-78
2021/03/27 00:19:31;;;;;;;58.15;32.40;;;;;;;11.94;51.96;100310.97;5037026;27;101274;-80
2021/03/27 00:22:03;;;;;;;62.33;34.25;;;;;;;11.87;52.03;100311.28;5075375;27;96764;-77
2021/03/27 00:24:57;;;;;;;57.40;32.65;;;;;;;11.82;52.40;100311.44;5057523;27;97025;-77
2021/03/27 00:27:30;;;;;;;60.30;33.35;;;;;;;11.81;52.55;100309.75;5061425;27;98431;-77
2021/03/27 00:29:59;;;;;;;58.85;35.63;;;;;;;11.81;52.60;100308.84;5054192;27;101124;-77
2021/03/27 00:32:32;;;;;;;59.08;34.60;;;;;;;11.78;52.75;100301.97;5046587;27;97125;-77
2021/03/27 00:35:06;;;;;;;57.70;34.20;;;;;;;11.79;52.81;100309.78;5041264;27;96793;-77
2021/03/27 00:37:32;;;;;;;59.70;34.80;;;;;;;11.72;52.96;100300.44;5032799;27;101963;-77
2021/03/27 00:40:07;;;;;;;62.22;35.45;;;;;;;11.82;52.44;100305.31;5057374;27;101233;-77
2021/03/27 00:42:46;;;;;;;63.33;33.70;;;;;;;11.86;52.56;100297.28;5074100;27;96682;-77
2021/03/27 00:45:14;;;;;;;63.95;33.42;;;;;;;11.73;52.37;100296.03;5044520;27;97051;-78
2021/03/27 00:47:43;;;;;;;60.00;32.28;;;;;;;11.71;52.27;100288.19;5055806;27;101400;-77
2021/03/27 00:50:19;;;;;;;59.72;33.25;;;;;;;11.72;52.53;100289.91;5040574;27;101287;-77
2021/03/27 00:52:48;;;;;;;53.33;30.70;;;;;;;11.64;52.37;100278.84;5047585;27;96928;-77
2021/03/27 00:55:22;;;;;;;53.15;30.02;;;;;;;11.76;51.99;100282.75;5057824;27;96994;-83
2021/03/27 00:58:13;;;;;;;57.95;30.77;;;;;;;11.59;52.41;100279.94;5053680;27;101637;-77
2021/03/27 01:00:38;;;;;;;53.35;31.08;;;;;;;11.60;52.68;100273.75;5056319;27;101550;-77
2021/03/27 01:03:27;;;;;;;55.50;31.20;;;;;;;11.64;52.07;100265.69;5056746;27;96693;-78
2021/03/27 01:06:32;;;;;;;52.58;29.40;;;;;;;11.64;51.92;100264.84;5023038;28;97212;-77
2021/03/27 01:09:35;;;;;;;50.92;29.25;;;;;;;11.55;52.11;100259.03;5036915;27;97867;-77
2021/03/27 01:12:41;;;;;;;54.40;29.55;;;;;;;11.47;52.37;100257.59;4969189;28;97703;-77
2021/03/27 01:15:13;;;;;;;53.67;29.98;;;;;;;11.49;52.34;100254.00;4959838;28;96934;-77
2021/03/27 01:17:45;;;;;;;49.92;28.67;;;;;;;11.44;52.49;100253.31;5028699;27;96839;-77
2021/03/27 01:20:16;;;;;;;51.70;30.98;;;;;;;11.46;52.83;100250.63;5077325;27;101668;-79
2021/03/27 01:22:44;;;;;;;50.93;28.07;;;;;;;11.33;52.38;100258.13;5039789;27;101562;-78
2021/03/27 01:25:11;;;;;;;52.13;29.70;;;;;;;11.29;52.54;100260.03;5045371;27;97045;-77
2021/03/27 01:27:49;;;;;;;52.15;30.75;;;;;;;11.25;52.94;100249.66;5043529;27;97277;-77
2021/03/27 01:30:44;;;;;;;53.05;30.73;;;;;;;11.39;52.29;100244.75;5033317;27;101936;-77
2021/03/27 01:33:24;;;;;;;50.55;27.85;;;;;;;11.26;52.65;100249.63;5053058;27;97880;-77
2021/03/27 01:36:17;;;;;;;57.42;29.00;;;;;;;11.20;52.84;100248.97;5081360;27;96661;-77
2021/03/27 01:38:53;;;;;;;60.08;30.55;;;;;;;10.88;53.92;100240.56;5059909;27;96792;-78
2021/03/27 01:41:42;;;;;;;53.00;30.92;;;;;;;10.64;55.33;100232.63;5046280;27;101837;-85
2021/03/27 01:44:18;;;;;;;58.95;32.38;;;;;;;10.46;55.91;100241.16;5046991;27;101939;-77
2021/03/27 01:46:54;;;;;;;53.17;31.45;;;;;;;10.31;55.93;100231.19;5064522;27;96616;-77
2021/03/27 01:49:33;;;;;;;59.47;34.25;;;;;;;10.26;56.58;100238.31;5080719;27;97880;-86
2021/03/27 01:52:02;;;;;;;58.90;33.38;;;;;;;10.25;56.29;100234.84;5060074;27;98172;-77
2021/03/27 01:54:51;;;;;;;54.75;32.15;;;;;;;10.23;56.76;100225.31;5080174;27;98490;-77
2021/03/27 01:57:42;;;;;;;59.75;31.52;;;;;;;10.43;55.74;100229.00;5099385;27;96665;-84
2021/03/27 02:00:23;;;;;;;58.78;33.35;;;;;;;10.46;55.84;100220.16;5063864;27;96882;-77
2021/03/27 02:02:57;;;;;;;55.45;32.15;;;;;;;10.45;55.72;100218.44;5068296;27;97631;-77
2021/03/27 02:05:32;;;;;;;65.10;36.03;;;;;;;10.27;55.83;100217.34;5061731;27;98065;-77
2021/03/27 02:08:29;;;;;;;63.67;34.67;;;;;;;10.19;56.33;100220.16;5099494;27;97266;-77
2021/03/27 02:11:18;;;;;;;57.78;33.40;;;;;;;10.20;56.62;100216.63;5035361;27;97119;-77
2021/03/27 02:14:06;;;;;;;62.88;34.08;;;;;;;10.28;56.34;100213.78;5059390;27;101859;-78
2021/03/27 02:16:55;;;;;;;65.93;35.40;;;;;;;10.04;57.08;100212.81;5056060;27;102620;-77
2021/03/27 02:19:27;;;;;;;64.20;35.53;;;;;;;9.92;56.56;100208.00;5046118;27;97084;-80
2021/03/27 02:22:23;;;;;;;65.22;35.72;;;;;;;9.93;56.72;100204.47;5063283;27;96881;-77
2021/03/27 02:25:01;;;;;;;66.63;37.03;;;;;;;9.72;57.58;100204.25;5080119;27;97587;-77
2021/03/27 02:28:11;;;;;;;62.90;34.90;;;;;;;9.73;57.34;100203.34;5079688;27;98253;-77
2021/03/27 02:30:41;;;;;;;72.03;37.65;;;;;;;9.64;57.98;100197.53;4961419;28;96777;-77
2021/03/27 02:33:15;;;;;;;64.20;35.92;;;;;;;9.69;57.96;100195.63;4977426;28;96920;-77
2021/03/27 02:35:53;;;;;;;63.63;36.10;;;;;;;9.81;57.14;100192.63;5028504;27;99274;-78
2021/03/27 02:38:27;;;;;;;63.75;36.17;;;;;;;9.61;58.00;100188.00;5079163;27;99585;-83
2021/03/27 02:41:14;;;;;;;69.38;36.38;;;;;;;9.71;57.89;100196.44;5063456;27;97137;-77
2021/03/27 02:43:43;;;;;;;61.05;35.85;;;;;;;9.75;57.18;100191.03;5079576;27;97241;-77
2021/03/27 02:46:18;;;;;;;67.10;37.50;;;;;;;9.86;57.54;100192.44;5062302;27;101378;-77
2021/03/27 02:48:45;;;;;;;63.15;36.10;;;;;;;9.74;57.56;100188.47;5079029;27;98117;-77
2021/03/27 02:51:11;;;;;;;69.07;38.30;;;;;;;9.71;57.94;100197.28;5058655;27;97118;-82
2021/03/27 02:53:55;;;;;;;71.13;38.92;;;;;;;9.78;57.32;100194.47;5047944;27;97184;-80
2021/03/27 02:56:38;;;;;;;63.75;36.72;;;;;;;9.59;57.89;100191.59;5061213;27;97374;-82
2021/03/27 02:59:30;;;;;;;63.45;36.97;;;;;;;9.46;57.73;100188.50;5077861;27;101135;-77
2021/03/27 03:02:15;;;;;;;68.13;37.03;;;;;;;9.45;57.99;100182.41;5078908;27;96829;-77
2021/03/27 03:05:18;;;;;;;71.25;36.95;;;;;;;9.47;57.47;100185.81;5044874;27;96891;-78
2021/03/27 03:07:52;;;;;;;67.95;35.33;;;;;;;9.47;57.89;100190.22;5067291;27;101420;-77
2021/03/27 03:10:20;;;;;;;69.38;37.45;;;;;;;9.51;57.58;100187.47;5065879;27;101188;-82
2021/03/27 03:12:56;;;;;;;72.07;37.58;;;;;;;9.65;57.20;100194.84;5079975;27;97053;-77
2021/03/27 03:15:31;;;;;;;71.15;37.10;;;;;;;9.70;56.96;100182.47;5058780;27;96839;-78
2021/03/27 03:18:27;;;;;;;65.10;37.22;;;;;;;9.53;56.77;100179.53;5058586;27;101426;-77
2021/03/27 03:21:05;;;;;;;63.75;34.38;;;;;;;9.29;57.61;100179.41;5041593;27;101762;-77
2021/03/27 03:23:48;;;;;;;66.05;35.30;;;;;;;9.34;57.46;100183.63;5046862;27;97872;-78
2021/03/27 03:26:31;;;;;;;67.78;35.75;;;;;;;9.42;57.57;100179.00;5042837;27;96909;-77
2021/03/27 03:29:20;;;;;;;67.43;36.08;;;;;;;9.48;57.53;100176.19;5062381;27;98033;-77
2021/03/27 03:32:04;;;;;;;60.95;34.25;;;;;;;9.34;57.17;100173.16;5064904;27;98085;-77
2021/03/27 03:34:55;;;;;;;66.13;35.80;;;;;;;9.27;56.84;100177.72;5043428;27;96958;-79
2021/03/27 03:38:02;;;;;;;62.25;33.00;;;;;;;9.29;57.26;100162.84;5078899;27;96979;-84
2021/03/27 03:41:18;;;;;;;58.45;31.83;;;;;;;9.27;57.53;100162.88;5078654;27;98530;-77
2021/03/27 03:44:04;;;;;;;58.22;31.83;;;;;;;9.14;57.14;100164.16;5018557;27;99037;-77
2021/03/27 03:46:57;;;;;;;59.15;31.63;;;;;;;9.10;57.22;100165.16;5048421;27;97140;-77
2021/03/27 03:49:35;;;;;;;58.38;31.65;;;;;;;9.06;57.38;100163.53;5061366;27;96855;-78
2021/03/27 03:52:25;;;;;;;56.10;32.28;;;;;;;9.01;57.29;100161.03;5079071;27;97522;-77
2021/03/27 03:55:10;;;;;;;57.47;31.20;;;;;;;9.15;56.92;100162.41;5056666;27;101464;-77
2021/03/27 03:58:11;;;;;;;60.60;31.85;;;;;;;9.15;57.10;100160.63;5058157;27;96999;-77
2021/03/27 04:00:51;;;;;;;61.55;32.35;;;;;;;9.15;57.19;100158.00;5011462;27;97286;-77
2021/03/27 04:03:34;;;;;;;59.10;31.20;;;;;;;9.18;57.23;100163.16;5049510;27;100118;-78
2021/03/27 04:06:02;;;;;;;57.28;31.52;;;;;;;9.09;56.86;100159.97;5032038;27;100378;-77
2021/03/27 04:08:44;;;;;;;52.97;29.88;;;;;;;8.99;57.42;100157.63;5078355;27;96681;-77
2021/03/27 04:11:38;;;;;;;65.07;32.78;;;;;;;9.00;57.31;100153.25;5041548;27;97299;-77
2021/03/27 04:14:28;;;;;;;60.63;31.75;;;;;;;8.80;57.71;100154.69;5040931;27;101753;-77
2021/03/27 04:17:02;;;;;;;60.65;33.20;;;;;;;8.86;58.27;100158.03;5057901;27;101717;-77
2021/03/27 04:19:28;;;;;;;66.57;32.55;;;;;;;8.87;58.30;100150.13;5061803;27;96611;-77
2021/03/27 04:22:11;;;;;;;67.20;33.78;;;;;;;8.82;58.47;100158.13;5058092;27;97209;-76
2021/03/27 04:25:23;;;;;;;71.25;33.30;;;;;;;8.66;58.83;100151.63;5089978;27;97462;-79
2021/03/27 04:28:10;;;;;;;69.07;32.80;;;;;;;8.67;58.81;100152.47;5058733;27;101812;-77
2021/03/27 04:31:14;;;;;;;58.83;31.75;;;;;;;8.56;59.33;100150.19;5061505;27;96908;-77
2021/03/27 04:33:54;;;;;;;61.47;31.70;;;;;;;8.55;59.42;100156.28;4987726;28;97099;-77
2021/03/27 04:36:30;;;;;;;57.95;30.65;;;;;;;8.69;58.70;100151.53;5002581;28;101516;-84
2021/03/27 04:39:18;;;;;;;56.17;30.52;;;;;;;8.56;59.03;100142.34;4987414;28;101425;-77
2021/03/27 04:42:12;;;;;;;60.25;30.25;;;;;;;8.54;59.37;100151.97;4987146;28;96812;-77
2021/03/27 04:45:09;;;;;;;57.58;30.45;;;;;;;8.52;59.49;100149.41;4984353;28;97542;-77
2021/03/27 04:47:39;;;;;;;51.00;29.35;;;;;;;8.53;59.42;100151.13;4985294;28;98063;-77
2021/03/27 04:50:26;;;;;;;55.85;29.75;;;;;;;8.46;59.18;100144.31;4989960;28;99935;-77
2021/03/27 04:53:05;;;;;;;54.15;28.42;;;;;;;8.35;59.63;100141.16;5010148;28;96791;-77
2021/03/27 04:55:42;;;;;;;53.75;29.27;;;;;;;8.43;59.56;100141.81;4996603;28;97058;-77
2021/03/27 04:58:32;;;;;;;51.25;28.73;;;;;;;8.33;59.84;100150.78;5006309;28;98206;-77
2021/03/27 05:01:20;;;;;;;57.88;29.05;;;;;;;8.35;59.49;100147.22;4998702;28;98233;-77
2021/03/27 05:04:08;;;;;;;46.80;28.47;;;;;;;8.31;59.37;100148.19;5028018;27;96948;-77
2021/03/27 05:06:38;;;;;;;53.80;28.30;;;;;;;8.48;59.06;100145.16;5047294;27;97030;-77
2021/03/27 05:09:31;;;;;;;50.87;27.73;;;;;;;8.56;58.75;100140.56;5060687;27;101216;-77
2021/03/27 05:12:05;;;;;;;54.97;29.05;;;;;;;8.56;58.66;100140.56;5064526;27;98084;-77
2021/03/27 05:14:56;;;;;;;49.87;29.23;;;;;;;8.60;58.66;100141.31;5043624;27;97029;-77
2021/03/27 05:17:34;;;;;;;51.17;27.83;;;;;;;8.86;57.98;100139.72;5065086;27;96862;-84
2021/03/27 05:20:12;;;;;;;47.50;26.75;;;;;;;8.79;58.00;100139.91;5059547;27;98664;-78
2021/03/27 05:22:47;;;;;;;47.53;27.92;;;;;;;8.90;57.46;100134.34;5080729;27;101639;-77
2021/03/27 05:25:43;;;;;;;52.20;28.27;;;;;;;8.93;57.56;100129.03;5064416;27;96973;-77
2021/03/27 05:28:12;;;;;;;53.53;27.97;;;;;;;9.15;56.57;100123.13;5081384;27;96863;-77
2021/03/27 05:31:15;;;;;;;58.28;27.88;;;;;;;9.20;56.58;100137.78;5098976;27;98479;-77
2021/03/27 05:33:43;;;;;;;53.05;26.25;;;;;;;9.60;55.78;100152.25;5067858;27;101265;-77
2021/03/27 05:36:18;;;;;;;53.15;28.80;;;;;;;9.60;55.44;100144.38;5045333;27;96653;-76
2021/03/27 05:38:55;;;;;;;49.45;27.42;;;;;;;9.60;55.67;100147.00;5063172;27;97283;-77
2021/03/27 05:41:39;;;;;;;49.78;27.20;;;;;;;9.56;55.69;100139.28;5043836;27;101111;-81
2021/03/27 05:44:29;;;;;;;47.70;27.30;;;;;;;9.50;55.95;100135.09;5073577;27;101180;-77
2021/03/27 05:47:27;;;;;;;54.22;28.73;;;;;;;9.59;55.68;100141.78;5070606;27;97334;-77
2021/03/27 05:50:06;;;;;;;50.45;28.02;;;;;;;9.58;55.27;100132.22;5043948;27;96747;-77
2021/03/27 05:52:35;;;;;;;54.30;30.38;;;;;;;9.58;55.73;100135.69;5040419;27;101568;-77
2021/03/27 05:55:03;;;;;;;54.75;29.65;;;;;;;9.60;55.71;100139.13;5099345;27;98388;-77
2021/03/27 05:57:55;;;;;;;49.08;27.23;;;;;;;9.54;55.71;100136.72;5063336;27;96699;-77
2021/03/27 06:00:50;;;;;;;51.22;28.63;;;;;;;9.62;56.01;100132.06;5063879;27;96982;-77
2021/03/27 06:03:51;;;;;;;48.28;26.35;;;;;;;9.84;55.27;100133.97;5061446;27;101053;-77
2021/03/27 06:06:42;;;;;;;47.15;24.52;;;;;;;10.24;54.25;100129.94;5004731;27;101333;-78
2021/03/27 06:09:31;;;;;;;48.28;24.30;;;;;;;10.63;53.35;100132.94;5047081;27;96711;-77
2021/03/27 06:12:18;;;;;;;44.25;24.15;;;;;;;11.01;52.63;100128.84;5063298;27;96926;-77
2021/03/27 06:15:02;;;;;;;47.25;27.17;;;;;;;11.74;50.97;100119.75;5057389;27;101482;-77
2021/03/27 06:17:58;;;;;;;47.72;26.75;;;;;;;12.06;50.46;100120.19;5045922;27;100789;-78
2021/03/27 06:20:56;;;;;;;39.38;24.00;;;;;;;12.73;48.65;100124.22;5078852;27;96718;-83
2021/03/27 06:23:43;;;;;;;42.78;25.10;;;;;;;13.59;46.56;100110.47;5055815;27;97058;-77
2021/03/27 06:26:11;;;;;;;44.00;25.48;;;;;;;13.66;46.61;100115.44;5062878;27;98241;-77
2021/03/27 06:28:46;;;;;;;43.47;25.63;;;;;;;14.38;45.04;100115.22;5055213;27;101187;-77
2021/03/27 06:31:33;;;;;;;44.42;23.52;;;;;;;15.66;43.01;100109.03;5048000;27;96868;-80
2021/03/27 06:34:16;;;;;;;40.17;24.73;;;;;;;16.60;40.98;100106.91;5068902;27;97008;-75
2021/03/27 06:37:00;;;;;;;41.55;24.58;;;;;;;18.38;37.37;100108.47;5053833;27;101807;-78
2021/03/27 06:40:13;;;;;;;41.10;23.17;;;;;;;18.64;36.75;100109.28;5089971;27;98047;-83
2021/03/27 06:43:00;;;;;;;41.00;24.17;;;;;;;17.85;37.97;100095.28;5040079;27;97116;-75
2021/03/27 06:45:30;;;;;;;40.30;23.90;;;;;;;17.32;39.35;100098.84;5070000;27;97155;-82
2021/03/27 06:48:14;;;;;;;40.80;23.23;;;;;;;16.78;39.99;100099.63;5064964;27;98703;-75
2021/03/27 06:50:58;;;;;;;39.35;23.35;;;;;;;17.60;39.00;100093.41;5046393;27;101359;-75
2021/03/27 06:53:37;;;;;;;40.70;23.30;;;;;;;18.02;38.39;100091.47;5061497;27;96777;-83
2021/03/27 06:56:12;;;;;;;40.28;24.08;;;;;;;18.37;37.78;100090.00;5047984;27;96792;-75
2021/03/27 06:58:42;;;;;;;40.13;24.48;;;;;;;19.54;35.88;100087.72;5054565;27;98546;-76
2021/03/27 07:01:59;;;;;;;39.77;23.47;;;;;;;20.44;34.67;100070.13;5057908;27;101168;-75
2021/03/27 07:04:28;;;;;;;37.05;23.10;;;;;;;21.40;33.54;100074.00;5017766;27;96873;-81
2021/03/27 07:07:15;;;;;;;34.38;21.92;;;;;;;22.41;32.18;100069.91;5078704;27;96977;-74
2021/03/27 07:10:07;;;;;;;35.92;22.92;;;;;;;23.37;31.03;100066.63;5085187;27;98180;-78
2021/03/27 07:13:16;;;;;;;33.38;22.08;;;;;;;23.72;30.64;100062.56;5049481;27;101049;-75
2021/03/27 07:16:27;;;;;;;35.83;22.08;;;;;;;24.60;29.61;100052.44;4991400;28;97044;-76
2021/03/27 07:19:29;;;;;;;34.40;22.27;;;;;;;24.05;29.97;100052.34;5066565;27;97000;-75
2021/03/27 07:22:11;;;;;;;37.20;21.17;;;;;;;25.20;28.87;100047.44;5075861;27;98536;-76
2021/03/27 07:25:08;;;;;;;34.88;23.05;;;;;;;24.85;29.13;100049.03;5060415;27;101583;-75
2021/03/27 07:28:18;;;;;;;33.83;22.60;;;;;;;25.59;28.42;100047.09;5067726;27;97206;-75
2021/03/27 07:31:05;;;;;;;33.92;22.35;;;;;;;23.73;30.09;100049.00;4985378;28;97414;-76
2021/03/27 07:33:48;;;;;;;35.90;20.98;;;;;;;21.39;33.46;100049.13;5065886;27;101937;-75
2021/03/27 07:36:26;;;;;;;33.85;21.02;;;;;;;19.56;36.06;100062.69;5092184;27;98520;-75
2021/03/27 07:39:29;;;;;;;37.00;21.00;;;;;;;19.35;36.95;100066.97;5056907;27;96848;-75
2021/03/27 07:42:03;;;;;;;33.30;21.17;;;;;;;20.38;35.39;100051.97;5051381;27;96830;-75
2021/03/27 07:44:51;;;;;;;35.47;21.23;;;;;;;19.35;37.01;100073.16;5078345;27;98651;-78
2021/03/27 07:47:34;;;;;;;32.97;21.30;;;;;;;18.26;39.03;100080.94;5061211;27;101864;-76
2021/03/27 07:50:24;;;;;;;34.33;21.52;;;;;;;17.46;40.50;100080.22;5079013;27;96719;-74
2021/03/27 07:53:17;;;;;;;38.38;21.55;;;;;;;17.42;41.08;100078.69;5062173;27;96816;-74
2021/03/27 07:56:08;;;;;;;29.88;19.63;;;;;;;17.08;41.75;100088.88;5047960;27;101241;-74
2021/03/27 07:59:07;;;;;;;33.75;20.10;;;;;;;16.87;42.57;100084.94;5078960;27;97865;-74
2021/03/27 08:01:45;;;;;;;37.40;22.63;;;;;;;16.64;43.37;100089.88;5046850;27;96674;-76
2021/03/27 08:04:20;;;;;;;36.10;21.10;;;;;;;18.08;41.63;100092.88;5070741;27;96900;-74
2021/03/27 08:06:51;;;;;;;35.80;19.60;;;;;;;20.07;38.03;100097.00;5071281;27;97539;-74
2021/03/27 08:09:22;;;;;;;33.40;20.45;;;;;;;20.47;37.28;100101.88;5060839;27;101231;-74
2021/03/27 08:12:13;;;;;;;34.03;21.95;;;;;;;19.66;37.57;100108.13;5050631;27;96727;-74
2021/03/27 08:14:47;;;;;;;30.20;18.85;;;;;;;19.16;38.25;100118.03;5097130;27;96744;-74
2021/03/27 08:17:28;;;;;;;33.65;18.10;;;;;;;18.96;38.06;100115.00;5057545;27;101834;-74
2021/03/27 08:20:25;;;;;;;25.92;17.27;;;;;;;18.68;38.42;100115.28;5076914;27;101811;-74
2021/03/27 08:22:59;;;;;;;30.48;17.40;;;;;;;19.66;36.77;100117.00;5071389;27;96671;-74
2021/03/27 08:25:45;;;;;;;29.42;17.60;;;;;;;18.70;38.16;100127.50;5065932;27;97057;-74
2021/03/27 08:28:45;;;;;;;28.83;17.67;;;;;;;18.03;39.53;100125.03;5043919;27;101884;-75
2021/03/27 08:31:32;;;;;;;30.88;18.95;;;;;;;17.71;40.41;100126.31;5071945;27;101391;-75
2021/03/27 08:34:07;;;;;;;30.88;17.60;;;;;;;17.58;41.19;100121.84;5053312;27;97005;-74
2021/03/27 08:36:54;;;;;;;30.70;16.23;;;;;;;17.68;41.40;100123.88;5074210;27;97796;-76
2021/03/27 08:39:41;;;;;;;32.72;17.10;;;;;;;17.72;41.44;100120.09;5085421;27;98496;-74
2021/03/27 08:42:48;;;;;;;28.30;17.00;;;;;;;17.68;41.19;100114.09;5057098;27;101290;-74
2021/03/27 08:45:39;;;;;;;25.92;16.20;;;;;;;17.57;41.88;100114.84;5047033;27;96689;-74
2021/03/27 08:48:19;;;;;;;28.30;16.13;;;;;;;17.45;41.61;100114.78;5040294;27;96823;-79
2021/03/27 08:51:13;;;;;;;28.60;15.57;;;;;;;17.28;42.08;100115.88;5076560;27;99749;-74
2021/03/27 08:53:57;;;;;;;25.15;14.98;;;;;;;17.20;42.16;100122.56;5075254;27;97514;-74
2021/03/27 08:56:47;;;;;;;26.23;14.32;;;;;;;17.12;41.97;100122.19;5052969;27;97064;-78
2021/03/27 08:59:38;;;;;;;27.23;14.10;;;;;;;17.01;41.16;100122.03;5061078;27;96785;-74
2021/03/27 09:02:23;;;;;;;30.92;15.48;;;;;;;17.12;40.57;100124.84;5047271;27;100710;-77
2021/03/27 09:05:11;;;;;;;27.48;14.10;;;;;;;17.16;40.36;100130.78;5050616;27;97770;-76
2021/03/27 09:07:39;;;;;;;30.20;16.70;;;;;;;17.11;39.83;100123.16;5086809;27;96736;-74
2021/03/27 09:10:44;;;;;;;23.13;14.25;;;;;;;17.24;39.76;100128.50;5059097;27;96863;-74
2021/03/27 09:13:28;;;;;;;27.48;15.90;;;;;;;18.63;37.96;100128.88;5052201;27;101457;-73
2021/03/27 09:15:57;;;;;;;25.92;14.95;;;;;;;19.12;37.05;100136.03;5052328;27;101175;-74
2021/03/27 09:18:46;;;;;;;29.02;15.73;;;;;;;19.95;36.19;100123.72;5056300;27;97125;-74
2021/03/27 09:21:23;;;;;;;27.63;15.55;;;;;;;19.58;36.17;100121.16;5052290;27;97549;-76
2021/03/27 09:24:29;;;;;;;24.10;15.07;;;;;;;19.04;36.29;100127.75;5091533;27;98487;-77
2021/03/27 09:26:55;;;;;;;22.42;13.48;;;;;;;18.98;37.02;100146.81;5005763;27;101707;-76
2021/03/27 09:29:43;;;;;;;25.25;13.68;;;;;;;18.81;36.26;100147.16;5053338;27;97161;-76
2021/03/27 09:32:38;;;;;;;20.25;12.80;;;;;;;18.92;36.05;100149.91;5064646;27;97544;-77
2021/03/27 09:35:37;;;;;;;25.23;12.52;;;;;;;18.99;36.15;100149.38;5056118;27;101707;-75
2021/03/27 09:38:25;;;;;;;25.23;11.55;;;;;;;18.84;35.80;100146.94;5075531;27;101905;-75
2021/03/27 09:41:09;;;;;;;23.75;10.57;;;;;;;18.81;35.34;100155.16;5058183;27;97250;-76
2021/03/27 09:43:38;;;;;;;23.23;10.60;;;;;;;18.95;36.38;100168.31;5075703;27;96788;-76
2021/03/27 09:46:22;;;;;;;22.50;10.73;;;;;;;19.02;35.58;100145.63;5095627;27;97947;-76
2021/03/27 09:49:20;;;;;;;25.48;11.52;;;;;;;18.98;35.39;100154.81;5070865;27;101479;-74
2021/03/27 09:52:14;;;;;;;20.20;11.18;;;;;;;18.84;36.22;100158.44;5042758;27;97168;-75
2021/03/27 09:55:03;;;;;;;25.83;10.65;;;;;;;19.10;35.48;100167.22;5084978;27;97364;-75
2021/03/27 09:57:53;;;;;;;24.13;11.73;;;;;;;19.11;35.90;100168.06;5011271;27;99808;-78
2021/03/27 10:00:47;;;;;;;20.85;11.82;;;;;;;19.39;35.07;100178.41;5056061;27;101255;-76
2021/03/27 10:03:15;;;;;;;22.25;10.57;;;;;;;19.65;35.31;100191.66;5081181;27;96626;-76
2021/03/27 10:06:08;;;;;;;18.02;10.48;;;;;;;19.23;35.86;100191.97;5072841;27;97010;-77
2021/03/27 10:08:41;;;;;;;23.17;11.05;;;;;;;18.94;36.04;100183.44;5034475;27;100998;-76
2021/03/27 10:11:19;;;;;;;24.27;11.68;;;;;;;18.80;36.01;100194.19;5033067;27;101461;-80
2021/03/27 10:14:20;;;;;;;22.15;11.13;;;;;;;18.48;36.13;100194.59;5052909;27;96980;-81
2021/03/27 10:16:49;;;;;;;18.33;10.80;;;;;;;18.38;36.97;100198.81;5037423;27;97166;-83
2021/03/27 10:19:18;;;;;;;19.42;11.52;;;;;;;18.24;36.96;100217.53;5051762;27;101679;-82
2021/03/27 10:21:58;;;;;;;24.00;11.55;;;;;;;18.07;37.50;100219.50;5086492;27;97984;-83
2021/03/27 10:24:35;;;;;;;21.23;12.25;;;;;;;17.89;38.27;100212.78;5069060;27;98324;-83
2021/03/27 10:27:19;;;;;;;19.52;11.10;;;;;;;17.68;38.51;100233.56;5050468;27;97362;-83
2021/03/27 10:30:04;;;;;;;20.58;11.57;;;;;;;17.63;38.98;100225.91;5062284;27;101508;-83
2021/03/27 10:32:30;;;;;;;23.38;11.85;;;;;;;17.40;39.75;100243.31;5086663;27;98472;-80
2021/03/27 10:35:03;;;;;;;21.65;10.40;;;;;;;17.20;39.72;100243.72;5088542;27;97254;-82
2021/03/27 10:37:38;;;;;;;21.30;9.77;;;;;;;17.02;40.30;100248.38;5053678;27;96787;-82
2021/03/27 10:40:34;;;;;;;17.48;9.65;;;;;;;16.75;41.66;100253.50;5051448;27;101225;-82
2021/03/27 10:43:22;;;;;;;22.25;11.63;;;;;;;16.62;42.13;100257.88;5053855;27;100160;-84
2021/03/27 10:45:59;;;;;;;14.98;10.07;;;;;;;16.37;42.56;100271.72;5067396;27;96982;-82
2021/03/27 10:48:40;;;;;;;16.92;9.63;;;;;;;16.31;42.69;100280.88;5067890;27;96960;-79
2021/03/27 10:51:33;;;;;;;20.88;9.13;;;;;;;16.03;43.02;100285.13;5046045;27;100045;-83
2021/03/27 10:54:20;;;;;;;13.85;8.68;;;;;;;15.88;43.48;100285.13;5068851;27;102027;-84
2021/03/27 10:57:05;;;;;;;20.10;8.00;;;;;;;15.69;44.17;100296.75;5069805;27;97147;-82
2021/03/27 10:59:56;;;;;;;17.80;8.45;;;;;;;15.61;44.62;100307.72;5050634;27;97661;-82
2021/03/27 11:02:22;;;;;;;;;;;;;;;15.37;45.71;100307.28;5040441;27;101021;-80
2021/03/27 11:05:15;;;;;;;13.63;5.65;;;;;;;15.18;46.50;100317.13;5047781;27;101077;-82
2021/03/27 11:08:32;;;;;;;15.48;4.80;;;;;;;15.24;46.71;100324.75;5057306;27;97380;-82
2021/03/27 11:11:22;;;;;;;20.85;6.78;;;;;;;15.20;47.32;100343.50;5024937;27;97146;-81
2021/03/27 11:14:09;;;;;;;8.75;3.78;;;;;;;15.04;48.15;100361.94;5070255;27;101390;-79
2021/03/27 11:16:40;;;;;;;6.45;4.05;;;;;;;14.61;50.78;100364.13;5060559;27;101583;-80
2021/03/27 11:19:06;;;;;;;;;;;;;;;14.36;52.86;100367.94;5070843;27;97076;-81
2021/03/27 11:22:09;;;;;;;8.57;4.00;;;;;;;14.19;53.97;100366.13;5071914;27;97142;-84
2021/03/27 11:24:52;;;;;;;8.60;4.47;;;;;;;14.13;54.06;100382.25;5072485;27;98597;-82
2021/03/27 11:27:21;;;;;;;8.95;5.22;;;;;;;14.14;55.15;100372.56;5033228;27;101575;-76
2021/03/27 11:30:00;;;;;;;10.57;5.03;;;;;;;14.34;54.59;100366.31;5066181;27;97233;-76
2021/03/27 11:32:38;;;;;;;5.75;4.55;;;;;;;14.47;54.62;100383.28;5038329;27;97082;-76
2021/03/27 11:35:36;;;;;;;7.93;4.97;;;;;;;14.86;53.98;100380.44;5094936;27;98443;-76
2021/03/27 11:38:23;;;;;;;11.68;5.72;;;;;;;14.93;52.98;100379.22;5049516;27;97874;-77
2021/03/27 11:41:05;;;;;;;7.90;5.38;;;;;;;15.28;52.64;100381.81;5076861;27;97145;-77
2021/03/27 11:43:55;;;;;;;6.32;4.43;;;;;;;15.42;51.43;100373.16;5057659;27;96879;-77
2021/03/27 11:46:54;;;;;;;7.53;5.05;;;;;;;15.39;50.89;100376.81;5039791;27;101403;-78
2021/03/27 11:49:37;;;;;;;8.43;4.82;;;;;;;15.40;50.41;100365.28;5075353;27;98334;-78
2021/03/27 11:52:36;;;;;;;6.38;4.50;;;;;;;15.48;50.34;100382.56;5030175;27;97006;-79
2021/03/27 11:55:49;;;;;;;8.07;5.05;;;;;;;15.35;50.20;100387.63;5077256;27;97009;-77
2021/03/27 11:58:26;;;;;;;13.85;4.65;;;;;;;15.27;49.50;100385.41;5043367;27;101790;-78
2021/03/27 12:01:02;;;;;;;10.57;3.90;;;;;;;15.13;49.17;100394.06;5053930;27;101510;-77
2021/03/27 12:03:34;;;;;;;9.05;4.10;;;;;;;15.09;48.82;100400.41;5058485;27;96858;-78
2021/03/27 12:06:13;;;;;;;8.60;3.95;;;;;;;14.90;47.88;100402.31;5077482;27;96817;-78
2021/03/27 12:09:07;;;;;;;11.13;3.70;;;;;;;15.03;47.97;100410.44;5075947;27;100601;-80
2021/03/27 12:11:53;;;;;;;5.50;3.40;;;;;;;15.23;46.88;100396.22;5069943;27;101640;-80
2021/03/27 12:14:31;;;;;;;11.20;3.42;;;;;;;15.36;47.01;100400.78;5067778;27;96849;-76
2021/03/27 12:17:12;;;;;;;5.78;3.50;;;;;;;15.30;46.70;100402.88;5033237;27;97383;-76
2021/03/27 12:19:55;;;;;;;12.32;4.22;;;;;;;15.14;47.51;100401.03;5035855;27;101357;-81
2021/03/27 12:22:38;;;;;;;9.43;4.28;;;;;;;15.18;47.85;100417.59;5043576;27;101440;-77
2021/03/27 12:25:29;;;;;;;8.23;4.30;;;;;;;15.22;47.97;100424.44;5047691;27;97290;-77
2021/03/27 12:28:45;;;;;;;10.15;6.60;;;;;;;15.01;48.20;100420.25;5045719;27;97327;-77